LMMLLEGE

Guest
Details From LMML - La Valette Luqa
To LEGE - Girona
Flight Number -
Tags decoded
Created
Modified
Stats Distance 740 nm / 1,371 km
Max Altitude 0 ft / 0 m
Waypoints 5
Social Downloads 0
Likes 0
Share VATSIM

Download

Looking for another format? Having issues loading an existing format? Contact us
Advertisement - Login to hide

Notes

Requested: LMML GZO UM732 NISEK UT175 DIVKO UN975 BGR LEGE Unmatched points: UM732 NISEK UT175 UN975

Route

LMML GZO DIVKO BGR LEGE

ID Type Via Altitude Latitude Longitude Leg Dist Tot Dist Heading (true) Name
O LMML APT - 0 ft / 0 m 35.84948˚ 14.48184˚ - 0 nm - La Valette Luqa
GZO VOR - 0 ft / 0 m 36.03733˚ 14.20525˚ 17 nm 17 nm 310° / 310° GOZO VOR-DME
DIVKO FIX - 0 ft / 0 m 43.05611˚ 4.77694˚ 606 nm 623 nm 317° / 311° -
BGR VOR - 0 ft / 0 m 41.94769˚ 3.20886˚ 96 nm 719 nm 227° / 226° BAGUR VOR-DME
O LEGE APT - 0 ft / 0 m 41.90520˚ 2.76213˚ 20 nm 740 nm 263° / 263° Girona

Altitude Profile

Advertisement - Login to hide

Weather


0- 5 10 15 20 25 30 35+ Temperature / ° C

Clouds and Precipitation
Forecast for 2018-05-21 06:00 UTC. Updated 22 minutes ago

Ground ~20,000 ft ~40,000 ft Winds

LMML

Details ICAO LMML (MLA)
Name La Valette Luqa
Region Malta
Timezone Europe/Malta (UTC+2.0)
Stats Elevation 300 ft / 91 m (AMSL)
Location 35.849477° 14.481836°
Runways 2
Magnetic Variation 3.061° E

METAR

LMML 210515Z 06012KT CAVOK 19/15 Q1011 NOSIG

Decode

TAF

Not found

Departure Runways

ID Width Length Bearing (true) Bearing (mag) Surface Threshold Offset Overrun Length
14 197 ft / 60 m 11,635 ft / 3,546 m 134.83° 131.77° Asphalt 0 ft / 0 m 420 ft / 128 m
24 148 ft / 45 m 7,789 ft / 2,374 m 234.37° 231.31° Asphalt 410 ft / 125 m 0 ft / 0 m
32 197 ft / 60 m 11,635 ft / 3,546 m 314.85° 311.79° Asphalt 817 ft / 249 m 0 ft / 0 m
6 148 ft / 45 m 7,789 ft / 2,374 m 54.35° 51.29° Asphalt 400 ft / 122 m 0 ft / 0 m

LEGE

Details ICAO LEGE (GRO)
Name Girona
Region Spain
Timezone Europe/Madrid (UTC+2.0)
Stats Elevation 403 ft / 123 m (AMSL)
Location 41.905202° 2.762133°
Runways 1
Magnetic Variation 1.026° E

METAR

LEGE 210530Z 01003KT 350V050 9999 FEW040 13/13 Q1013

Decode

TAF

TAF LEGE 202300Z 2100/2124 VRB03KT 9999 FEW030 TX24/2113Z TN12/2106Z PROB30 TEMPO 2100/2107 0800 BCFG BKN002 TEMPO 2106/2114 04007KT TEMPO 2114/2118 18010KT TEMPO 2115/2120 FEW030CB

Decode

Destination Runways

ID Width Length Bearing (true) Bearing (mag) Surface Threshold Offset Overrun Length
02 148 ft / 45 m 7,880 ft / 2,402 m 15.50° 14.47° Asphalt 0 ft / 0 m 210 ft / 64 m
20 148 ft / 45 m 7,880 ft / 2,402 m 195.50° 194.47° Asphalt 0 ft / 0 m 200 ft / 61 m

Approach Navaids

Runway Type Ident Frequency Range Bearing (true) Bearing (mag) Slope Elevation
20 Localiser IGN 109.90 MHz 18 nm / 33 km 195.60° 194.57° - 468 ft / 143 m (AMSL)
20 Glidescope IGN 109.90 MHz 10 nm / 19 km 195.50° 194.47° 3.00° 403 ft / 123 m (AMSL)
20 DME IGN 109.90 MHz 18 nm / 33 km - - - 463 ft / 141 m (AMSL)